createdAt,value
2019-05-25T00:01:24.398Z,5.40
2019-05-25T00:03:53.388Z,7.07
2019-05-25T00:06:22.345Z,5.30
2019-05-25T00:08:51.208Z,6.63
2019-05-25T00:11:20.135Z,7.40
2019-05-25T00:13:49.057Z,8.00
2019-05-25T00:16:17.894Z,8.70
2019-05-25T00:18:46.708Z,6.57
2019-05-25T00:21:15.554Z,7.07
2019-05-25T00:23:44.468Z,6.60
2019-05-25T00:26:13.372Z,5.97
2019-05-25T00:28:42.190Z,5.17
2019-05-25T00:31:11.085Z,7.57
2019-05-25T00:33:39.980Z,7.83
2019-05-25T00:36:08.948Z,6.93
2019-05-25T00:38:37.755Z,6.37
2019-05-25T00:41:06.580Z,6.97
2019-05-25T00:43:35.467Z,5.27
2019-05-25T00:46:04.439Z,7.23
2019-05-25T00:48:33.336Z,4.73
2019-05-25T00:51:02.248Z,7.13
2019-05-25T00:53:31.134Z,8.27
2019-05-25T00:56:00.063Z,8.83
2019-05-25T00:58:28.862Z,9.83
2019-05-25T01:00:57.782Z,4.80
2019-05-25T01:03:26.659Z,6.47
2019-05-25T01:05:55.576Z,6.67
2019-05-25T01:08:24.463Z,8.10
2019-05-25T01:10:53.373Z,7.50
2019-05-25T01:13:22.302Z,7.00
2019-05-25T01:15:51.269Z,8.67
2019-05-25T01:18:20.076Z,6.77
2019-05-25T01:20:49.028Z,8.93
2019-05-25T01:23:18.477Z,7.60
2019-05-25T01:25:53.203Z,7.63
2019-05-25T01:28:22.085Z,9.37
2019-05-25T01:30:51.049Z,7.43
2019-05-25T01:33:19.886Z,7.27
2019-05-25T01:35:48.759Z,8.47
2019-05-25T01:38:17.584Z,6.00
2019-05-25T01:40:46.387Z,6.73
2019-05-25T01:43:15.236Z,9.97
2019-05-25T01:45:44.119Z,8.00
2019-05-25T01:48:13.087Z,12.80
2019-05-25T01:50:41.916Z,8.23
2019-05-25T01:53:11.694Z,9.20
2019-05-25T01:55:40.770Z,10.70
2019-05-25T01:58:09.757Z,9.20
2019-05-25T02:00:38.623Z,7.90
2019-05-25T02:03:07.451Z,10.20
2019-05-25T02:05:36.259Z,12.23
2019-05-25T02:08:05.159Z,8.17
2019-05-25T02:10:33.954Z,9.87
2019-05-25T02:13:02.771Z,10.13
2019-05-25T02:15:31.649Z,8.03
2019-05-25T02:18:00.460Z,8.43
2019-05-25T02:20:29.267Z,8.60
2019-05-25T02:22:58.095Z,11.87
2019-05-25T02:25:26.949Z,8.13
2019-05-25T02:27:55.871Z,7.93
2019-05-25T02:30:27.615Z,9.13
2019-05-25T02:32:56.537Z,8.97
2019-05-25T02:35:27.636Z,9.70
2019-05-25T02:37:57.521Z,10.70
2019-05-25T02:40:26.968Z,8.97
2019-05-25T02:42:55.862Z,11.30
2019-05-25T02:45:24.735Z,9.03
2019-05-25T02:47:53.674Z,10.67
2019-05-25T02:50:22.638Z,9.40
2019-05-25T02:52:51.674Z,10.17
2019-05-25T02:55:33.899Z,14.27
2019-05-25T02:57:51.400Z,7.70
2019-05-25T03:00:26.062Z,9.93
2019-05-25T03:02:55.315Z,9.97
2019-05-25T03:05:24.235Z,10.50
2019-05-25T03:07:53.901Z,9.03
2019-05-25T03:10:22.793Z,9.60
2019-05-25T03:12:51.749Z,9.37
2019-05-25T03:15:20.723Z,10.23
2019-05-25T03:17:49.545Z,9.50
2019-05-25T03:20:18.595Z,10.53
2019-05-25T03:22:47.452Z,9.23
2019-05-25T03:25:16.604Z,9.80
2019-05-25T03:27:45.478Z,9.53
2019-05-25T03:30:16.856Z,8.27
2019-05-25T03:32:45.676Z,8.13
2019-05-25T03:35:14.715Z,8.77
2019-05-25T03:37:43.595Z,9.03
2019-05-25T03:40:12.753Z,7.50
2019-05-25T03:42:41.662Z,10.87
2019-05-25T03:45:10.821Z,11.23
2019-05-25T03:47:39.635Z,8.70
2019-05-25T03:50:08.599Z,8.40
2019-05-25T03:52:37.428Z,8.03
2019-05-25T03:55:06.404Z,9.30
2019-05-25T03:57:35.514Z,9.10
2019-05-25T04:00:04.832Z,9.03
2019-05-25T04:02:33.658Z,9.77
2019-05-25T04:05:02.637Z,11.20
2019-05-25T04:07:31.499Z,13.10
2019-05-25T04:10:00.389Z,11.47
2019-05-25T04:12:29.282Z,11.33
2019-05-25T04:14:58.192Z,10.70
2019-05-25T04:17:26.999Z,10.97
2019-05-25T04:19:55.900Z,10.13
2019-05-25T04:22:24.703Z,10.47
2019-05-25T04:24:53.502Z,12.37
2019-05-25T04:27:22.411Z,9.23
2019-05-25T04:29:51.216Z,9.97
2019-05-25T04:32:20.037Z,9.63
2019-05-25T04:34:48.847Z,8.27
2019-05-25T04:37:17.659Z,9.77
2019-05-25T04:39:46.470Z,9.87
2019-05-25T04:42:15.411Z,8.90
2019-05-25T04:44:44.296Z,9.43
2019-05-25T04:47:26.089Z,11.97
2019-05-25T04:49:43.635Z,9.70
2019-05-25T04:52:12.606Z,9.63
2019-05-25T04:54:41.404Z,11.97
2019-05-25T04:57:10.312Z,8.87
2019-05-25T04:59:39.109Z,8.40
2019-05-25T05:02:08.120Z,11.10
2019-05-25T05:04:37.003Z,8.83
2019-05-25T05:07:06.033Z,9.50
2019-05-25T05:09:34.980Z,9.10
2019-05-25T05:12:03.891Z,11.37
2019-05-25T05:14:32.698Z,13.43
2019-05-25T05:17:01.527Z,10.23
2019-05-25T05:19:30.398Z,11.73
2019-05-25T05:21:59.219Z,10.50
2019-05-25T05:24:28.071Z,12.67
2019-05-25T05:26:56.908Z,8.30
2019-05-25T05:29:25.843Z,7.93
2019-05-25T05:31:54.870Z,14.03
2019-05-25T05:34:23.802Z,7.27
2019-05-25T05:36:53.469Z,8.37
2019-05-25T05:39:24.700Z,7.27
2019-05-25T05:41:55.957Z,7.20
2019-05-25T05:44:28.293Z,10.30
2019-05-25T05:46:59.490Z,9.90
2019-05-25T05:49:30.288Z,7.03
2019-05-25T05:52:02.503Z,9.00
2019-05-25T05:54:32.363Z,10.20
2019-05-25T05:57:11.699Z,9.47
2019-05-25T05:59:31.994Z,6.27
2019-05-25T06:02:00.981Z,8.57
2019-05-25T06:04:29.952Z,8.90
2019-05-25T06:06:58.873Z,6.37
2019-05-25T06:09:27.687Z,9.67
2019-05-25T06:11:56.509Z,7.40
2019-05-25T06:14:25.324Z,10.60
2019-05-25T06:16:54.231Z,5.97
2019-05-25T06:19:23.171Z,7.67
2019-05-25T06:21:52.070Z,5.77
2019-05-25T06:24:20.903Z,7.97
2019-05-25T06:26:49.726Z,9.77
2019-05-25T06:29:18.716Z,5.67
2019-05-25T06:31:47.543Z,10.30
2019-05-25T06:34:16.445Z,9.87
2019-05-25T06:36:45.307Z,8.77
2019-05-25T06:39:14.198Z,8.20
2019-05-25T06:41:42.991Z,9.30
2019-05-25T06:44:11.841Z,4.77
2019-05-25T06:46:40.678Z,6.53
2019-05-25T06:49:09.584Z,6.37
2019-05-25T06:51:38.475Z,6.67
2019-05-25T06:54:07.439Z,7.93
2019-05-25T06:56:36.351Z,10.63
2019-05-25T06:59:05.433Z,6.70
2019-05-25T07:01:34.390Z,6.13
2019-05-25T07:04:03.265Z,9.30
2019-05-25T07:06:32.152Z,5.70
2019-05-25T07:09:01.079Z,6.27
2019-05-25T07:11:29.936Z,7.50
2019-05-25T07:13:58.847Z,7.03
2019-05-25T07:16:27.695Z,7.33
2019-05-25T07:18:56.508Z,3.43
2019-05-25T07:21:25.408Z,4.50
2019-05-25T07:23:54.228Z,2.83
2019-05-25T07:26:23.117Z,3.07
2019-05-25T07:28:52.020Z,2.53
2019-05-25T07:31:20.857Z,7.33
2019-05-25T07:33:49.675Z,4.13
2019-05-25T07:36:18.471Z,4.00
2019-05-25T07:38:47.347Z,4.67
2019-05-25T07:41:18.465Z,3.60
2019-05-25T07:43:49.439Z,7.50
2019-05-25T07:46:18.343Z,4.67
2019-05-25T07:48:50.275Z,5.50
2019-05-25T07:51:17.867Z,5.00
2019-05-25T07:53:46.679Z,3.83
2019-05-25T07:56:15.503Z,4.73
2019-05-25T07:58:44.306Z,8.57
2019-05-25T08:01:13.206Z,4.70
2019-05-25T08:03:41.999Z,5.47
2019-05-25T08:06:11.270Z,2.87
2019-05-25T08:08:40.077Z,3.63
2019-05-25T08:11:08.912Z,4.37
2019-05-25T08:13:37.787Z,3.30
2019-05-25T08:16:06.754Z,6.40
2019-05-25T08:18:35.562Z,4.40
2019-05-25T08:21:04.479Z,4.43
2019-05-25T08:23:33.284Z,4.27
2019-05-25T08:26:02.104Z,4.50
2019-05-25T08:28:33.104Z,3.93
2019-05-25T08:31:01.699Z,5.13
2019-05-25T08:33:30.675Z,4.67
2019-05-25T08:35:59.563Z,3.73
2019-05-25T08:38:28.446Z,4.13
2019-05-25T08:40:57.272Z,5.33
2019-05-25T08:43:26.084Z,7.17
2019-05-25T08:45:54.990Z,3.63
2019-05-25T08:48:23.896Z,4.37
2019-05-25T08:50:52.778Z,4.20
2019-05-25T08:53:37.559Z,6.53
2019-05-25T08:55:52.152Z,5.73
2019-05-25T08:58:20.975Z,5.67
2019-05-25T09:00:49.807Z,4.47
2019-05-25T09:03:18.755Z,6.90
2019-05-25T09:05:47.571Z,4.63
2019-05-25T09:08:16.416Z,3.90
2019-05-25T09:10:45.252Z,6.00
2019-05-25T09:13:14.088Z,5.30
2019-05-25T09:15:42.976Z,4.40
2019-05-25T09:18:11.811Z,5.23
2019-05-25T09:20:40.619Z,6.23
2019-05-25T09:23:09.454Z,5.37
2019-05-25T09:25:38.336Z,5.27
2019-05-25T09:28:07.241Z,4.73
2019-05-25T09:30:36.134Z,4.73
2019-05-25T09:33:05.170Z,6.13
2019-05-25T09:35:34.066Z,4.80
2019-05-25T09:38:02.980Z,4.53
2019-05-25T09:40:31.890Z,5.67
2019-05-25T09:43:00.728Z,5.00
2019-05-25T09:45:29.699Z,4.87
2019-05-25T09:47:58.626Z,7.83
2019-05-25T09:50:27.509Z,4.23
2019-05-25T09:52:56.475Z,6.40
2019-05-25T09:55:25.355Z,4.10
2019-05-25T09:57:54.195Z,4.90
2019-05-25T10:00:23.179Z,7.83
2019-05-25T10:02:52.241Z,5.00
2019-05-25T10:05:21.387Z,3.97
2019-05-25T10:07:50.263Z,4.37
2019-05-25T10:10:19.546Z,3.30
2019-05-25T10:12:48.488Z,4.47
2019-05-25T10:15:17.487Z,3.87
2019-05-25T10:17:46.365Z,3.20
2019-05-25T10:20:15.326Z,4.07
2019-05-25T10:22:44.170Z,2.50
2019-05-25T10:25:13.192Z,1.73
2019-05-25T10:27:42.027Z,2.43
2019-05-25T10:30:11.618Z,2.07
2019-05-25T10:32:40.539Z,3.70
2019-05-25T10:35:09.928Z,3.50
2019-05-25T10:37:38.833Z,1.47
2019-05-25T10:40:08.470Z,1.83
2019-05-25T10:42:37.329Z,2.40
2019-05-25T10:45:06.591Z,2.20
2019-05-25T10:47:35.579Z,1.83
2019-05-25T10:50:05.185Z,1.33
2019-05-25T10:52:34.122Z,1.93
2019-05-25T10:55:03.087Z,3.00
2019-05-25T10:57:31.933Z,2.60
2019-05-25T11:00:00.753Z,2.83
2019-05-25T11:02:29.734Z,2.80
2019-05-25T11:04:58.542Z,2.90
2019-05-25T11:07:27.391Z,3.40
2019-05-25T11:09:56.200Z,3.73
2019-05-25T11:12:26.134Z,4.20
2019-05-25T11:14:55.179Z,3.43
2019-05-25T11:17:24.017Z,3.30
2019-05-25T11:19:52.844Z,2.87
2019-05-25T11:22:21.734Z,2.03
2019-05-25T11:24:50.552Z,2.87
2019-05-25T11:27:20.129Z,3.00
2019-05-25T11:29:49.117Z,3.27
2019-05-25T11:32:18.053Z,2.50
2019-05-25T11:34:46.947Z,3.30
2019-05-25T11:37:15.860Z,1.60
2019-05-25T11:39:44.768Z,1.67
2019-05-25T11:42:13.659Z,2.20
2019-05-25T11:44:42.497Z,1.20
2019-05-25T11:47:11.299Z,2.17
2019-05-25T11:49:40.197Z,3.60
2019-05-25T11:52:09.070Z,1.53
2019-05-25T11:54:38.046Z,2.97
2019-05-25T11:57:07.007Z,1.63
2019-05-25T11:59:35.842Z,1.90
2019-05-25T12:02:04.811Z,1.00
2019-05-25T12:04:33.649Z,1.57
2019-05-25T12:07:07.578Z,4.43
2019-05-25T12:09:36.755Z,2.07
2019-05-25T12:12:05.631Z,1.50
2019-05-25T12:14:34.456Z,1.40
2019-05-25T12:17:03.345Z,1.40
2019-05-25T12:19:32.303Z,1.27
2019-05-25T12:22:01.252Z,1.53
2019-05-25T12:24:30.158Z,1.20
2019-05-25T12:26:58.962Z,2.30
2019-05-25T12:29:27.786Z,2.07
2019-05-25T12:32:04.117Z,1.70
2019-05-25T12:34:27.153Z,1.33
2019-05-25T12:36:55.956Z,2.17
2019-05-25T12:39:26.777Z,1.57
2019-05-25T12:41:55.382Z,4.57
2019-05-25T12:44:24.321Z,1.30
2019-05-25T12:46:53.122Z,1.87
2019-05-25T12:49:21.967Z,3.27
2019-05-25T12:51:50.839Z,3.07
2019-05-25T12:54:19.748Z,1.50
2019-05-25T12:56:48.558Z,1.57
2019-05-25T12:59:17.626Z,1.70
2019-05-25T13:01:46.447Z,1.87
2019-05-25T13:04:17.130Z,1.93
2019-05-25T13:06:47.823Z,2.57
2019-05-25T13:09:18.555Z,2.40
2019-05-25T13:11:49.447Z,2.13
2019-05-25T13:14:20.877Z,1.97
2019-05-25T13:16:53.358Z,2.40
2019-05-25T13:19:24.050Z,2.27
2019-05-25T13:21:55.477Z,3.50
2019-05-25T13:24:26.922Z,3.27
2019-05-25T13:26:57.717Z,2.63
2019-05-25T13:29:28.845Z,2.70
2019-05-25T13:31:59.721Z,2.13
2019-05-25T13:34:30.846Z,4.47
2019-05-25T13:37:02.166Z,5.03
2019-05-25T13:39:31.398Z,2.90
2019-05-25T13:42:00.391Z,2.60
2019-05-25T13:44:29.294Z,2.23
2019-05-25T13:46:58.191Z,2.80
2019-05-25T13:49:27.003Z,9.17
2019-05-25T13:51:55.811Z,3.40
2019-05-25T13:54:24.628Z,5.07
2019-05-25T13:56:53.455Z,4.20
2019-05-25T13:59:22.338Z,4.33
2019-05-25T14:01:51.275Z,2.60
2019-05-25T14:04:25.298Z,3.10
2019-05-25T14:06:54.128Z,4.30
2019-05-25T14:09:22.939Z,2.63
2019-05-25T14:11:51.769Z,3.17
2019-05-25T14:14:29.075Z,3.20
2019-05-25T14:16:57.907Z,4.00
2019-05-25T14:19:26.718Z,2.17
2019-05-25T14:21:55.551Z,3.10
2019-05-25T14:24:24.425Z,2.40
2019-05-25T14:26:53.315Z,4.47
2019-05-25T14:29:25.464Z,2.33
2019-05-25T14:31:52.877Z,3.93
2019-05-25T14:34:21.741Z,2.17
2019-05-25T14:36:50.580Z,2.00
2019-05-25T14:39:19.466Z,2.93
2019-05-25T14:41:48.350Z,4.40
2019-05-25T14:44:17.359Z,3.60
2019-05-25T14:46:46.166Z,3.13
2019-05-25T14:49:15.081Z,2.90
2019-05-25T14:51:56.246Z,4.87
2019-05-25T14:54:25.151Z,2.13
2019-05-25T14:56:54.095Z,2.73
2019-05-25T14:59:23.064Z,2.50
2019-05-25T15:02:02.099Z,2.50
2019-05-25T15:04:22.455Z,2.03
2019-05-25T15:06:51.343Z,1.70
2019-05-25T15:09:20.336Z,1.60
2019-05-25T15:11:53.787Z,3.60
2019-05-25T15:14:20.865Z,2.57
2019-05-25T15:16:50.365Z,3.03
2019-05-25T15:19:19.323Z,4.93
2019-05-25T15:21:48.194Z,2.07
2019-05-25T15:24:17.259Z,2.03
2019-05-25T15:26:46.189Z,1.87
2019-05-25T15:29:15.107Z,2.00
2019-05-25T15:31:43.941Z,2.27
2019-05-25T15:34:12.840Z,2.10
2019-05-25T15:36:41.741Z,2.00
2019-05-25T15:39:10.791Z,2.97
2019-05-25T15:41:39.671Z,2.00
2019-05-25T15:44:08.725Z,4.30
2019-05-25T15:46:38.161Z,2.80
2019-05-25T15:49:07.344Z,1.97
2019-05-25T15:51:36.501Z,2.13
2019-05-25T15:54:10.453Z,2.30
2019-05-25T15:56:36.827Z,2.93
2019-05-25T15:59:06.185Z,2.50
2019-05-25T16:01:35.436Z,1.60
2019-05-25T16:04:04.863Z,2.20
2019-05-25T16:06:34.000Z,1.80
2019-05-25T16:09:04.523Z,2.33
2019-05-25T16:11:33.456Z,2.10
2019-05-25T16:14:02.488Z,1.83
2019-05-25T16:16:31.509Z,1.97
2019-05-25T16:19:00.454Z,2.17
2019-05-25T16:21:29.422Z,2.47
2019-05-25T16:23:58.335Z,2.97
2019-05-25T16:26:27.224Z,1.73
2019-05-25T16:28:56.338Z,2.80
2019-05-25T16:31:25.318Z,2.13
2019-05-25T16:33:54.453Z,3.63
2019-05-25T16:36:23.641Z,4.43
2019-05-25T16:38:52.643Z,2.07
2019-05-25T16:41:21.559Z,1.97
2019-05-25T16:43:50.608Z,2.27
2019-05-25T16:46:19.646Z,3.13
2019-05-25T16:48:48.555Z,2.13
2019-05-25T16:51:17.627Z,2.10
2019-05-25T16:53:46.454Z,2.43
2019-05-25T16:56:15.408Z,2.93
2019-05-25T16:58:44.379Z,2.30
2019-05-25T17:01:17.560Z,1.77
2019-05-25T17:03:44.083Z,2.53
2019-05-25T17:06:13.050Z,2.30
2019-05-25T17:08:41.915Z,3.00
2019-05-25T17:11:10.849Z,1.80
2019-05-25T17:13:39.853Z,2.80
2019-05-25T17:16:08.887Z,2.03
2019-05-25T17:18:37.868Z,2.53
2019-05-25T17:21:06.886Z,2.03
2019-05-25T17:23:37.213Z,6.03
2019-05-25T17:26:06.537Z,1.63
2019-05-25T17:28:42.067Z,2.60
2019-05-25T17:31:11.510Z,3.57
2019-05-25T17:33:45.945Z,1.73
2019-05-25T17:36:13.069Z,1.73
2019-05-25T17:38:43.543Z,1.67
2019-05-25T17:41:13.718Z,3.23
2019-05-25T17:43:42.681Z,1.80
2019-05-25T17:46:11.746Z,3.30
2019-05-25T17:48:40.747Z,2.03
2019-05-25T17:51:09.804Z,2.70
2019-05-25T17:53:38.782Z,1.80
2019-05-25T17:56:07.829Z,3.70
2019-05-25T17:58:36.986Z,5.27
2019-05-25T18:01:06.138Z,2.20
2019-05-25T18:03:35.185Z,2.83
2019-05-25T18:06:04.381Z,2.43
2019-05-25T18:08:33.368Z,2.70
2019-05-25T18:11:02.294Z,2.43
2019-05-25T18:13:31.361Z,1.70
2019-05-25T18:16:00.262Z,6.07
2019-05-25T18:18:29.365Z,1.70
2019-05-25T18:20:58.519Z,1.90
2019-05-25T18:23:27.730Z,3.03
2019-05-25T18:25:56.807Z,2.23
2019-05-25T18:28:25.802Z,2.50
2019-05-25T18:30:55.059Z,4.13
2019-05-25T18:33:24.493Z,2.50
2019-05-25T18:35:53.982Z,2.80
2019-05-25T18:38:23.103Z,2.00
2019-05-25T18:40:52.081Z,1.70
2019-05-25T18:43:21.099Z,2.23
2019-05-25T18:45:50.660Z,2.10
2019-05-25T18:48:19.780Z,1.57
2019-05-25T18:50:49.110Z,2.17
2019-05-25T18:53:18.134Z,3.53
2019-05-25T18:55:47.208Z,2.40
2019-05-25T18:58:16.204Z,1.93
2019-05-25T19:00:45.229Z,1.73
2019-05-25T19:03:15.559Z,2.07
2019-05-25T19:05:44.530Z,4.10
2019-05-25T19:08:13.403Z,1.53
2019-05-25T19:10:42.528Z,2.00
2019-05-25T19:13:11.626Z,1.97
2019-05-25T19:15:40.648Z,2.33
2019-05-25T19:18:09.712Z,2.30
2019-05-25T19:20:38.715Z,2.50
2019-05-25T19:23:07.535Z,1.87
2019-05-25T19:25:36.650Z,2.20
2019-05-25T19:28:05.871Z,5.23
2019-05-25T19:30:34.900Z,1.90
2019-05-25T19:33:04.119Z,2.43
2019-05-25T19:35:33.239Z,2.80
2019-05-25T19:38:02.207Z,2.93
2019-05-25T19:40:31.069Z,2.67
2019-05-25T19:43:02.136Z,2.20
2019-05-25T19:45:33.196Z,3.93
2019-05-25T19:48:02.194Z,2.40
2019-05-25T19:50:31.123Z,2.53
2019-05-25T19:53:00.160Z,3.57
2019-05-25T19:55:28.970Z,3.50
2019-05-25T19:57:58.015Z,3.43
2019-05-25T20:00:27.133Z,2.93
2019-05-25T20:02:56.098Z,4.17
2019-05-25T20:05:25.164Z,5.03
2019-05-25T20:07:54.127Z,5.00
2019-05-25T20:10:23.284Z,3.60
2019-05-25T20:12:52.110Z,3.30
2019-05-25T20:15:21.077Z,3.13
2019-05-25T20:17:49.963Z,3.07
2019-05-25T20:20:19.814Z,2.57
2019-05-25T20:22:48.643Z,1.93
2019-05-25T20:25:17.527Z,2.90
2019-05-25T20:27:46.330Z,2.77
2019-05-25T20:30:16.771Z,2.47
2019-05-25T20:32:45.572Z,2.57
2019-05-25T20:35:31.686Z,3.03
2019-05-25T20:37:46.639Z,4.37
2019-05-25T20:40:16.082Z,3.27
2019-05-25T20:42:45.352Z,2.33
2019-05-25T20:45:14.314Z,3.33
2019-05-25T20:47:43.111Z,2.70
2019-05-25T20:50:12.100Z,2.90
2019-05-25T20:52:40.988Z,3.17
2019-05-25T20:55:10.030Z,3.37
2019-05-25T20:57:38.904Z,3.60
2019-05-25T21:00:08.291Z,4.17
2019-05-25T21:02:37.241Z,2.50
2019-05-25T21:05:06.458Z,2.53
2019-05-25T21:07:35.343Z,2.67
2019-05-25T21:10:04.663Z,2.60
2019-05-25T21:12:33.535Z,3.03
2019-05-25T21:15:02.452Z,3.03
2019-05-25T21:17:31.397Z,3.20
2019-05-25T21:20:00.289Z,2.77
2019-05-25T21:22:29.223Z,2.97
2019-05-25T21:24:58.093Z,3.07
2019-05-25T21:27:26.903Z,4.37
2019-05-25T21:29:55.806Z,2.93
2019-05-25T21:32:24.622Z,3.70
2019-05-25T21:34:53.562Z,5.07
2019-05-25T21:37:22.382Z,3.47
2019-05-25T21:39:51.205Z,4.33
2019-05-25T21:42:20.095Z,3.10
2019-05-25T21:44:49.005Z,3.00
2019-05-25T21:47:17.886Z,3.73
2019-05-25T21:49:46.853Z,3.23
2019-05-25T21:52:15.685Z,2.40
2019-05-25T21:54:44.519Z,2.90
2019-05-25T21:57:13.326Z,2.93
2019-05-25T21:59:42.181Z,4.97
2019-05-25T22:02:10.988Z,4.53
2019-05-25T22:04:39.897Z,4.47
2019-05-25T22:07:08.863Z,4.60
2019-05-25T22:09:37.671Z,4.43
2019-05-25T22:12:06.649Z,4.00
2019-05-25T22:14:35.531Z,5.40
2019-05-25T22:17:04.644Z,4.73
2019-05-25T22:19:33.471Z,3.57
2019-05-25T22:22:02.443Z,5.37
2019-05-25T22:24:31.395Z,3.87
2019-05-25T22:27:00.260Z,4.90
2019-05-25T22:29:29.119Z,3.87
2019-05-25T22:31:57.963Z,3.60
2019-05-25T22:34:26.910Z,4.67
2019-05-25T22:36:55.740Z,4.03
2019-05-25T22:39:24.613Z,4.97
2019-05-25T22:41:53.516Z,4.30
2019-05-25T22:44:22.316Z,3.77
2019-05-25T22:46:51.141Z,5.13
2019-05-25T22:49:19.959Z,4.47
2019-05-25T22:51:48.866Z,4.20
2019-05-25T22:54:18.274Z,5.23
2019-05-25T22:56:47.231Z,3.73
2019-05-25T22:59:16.189Z,4.47
2019-05-25T23:01:45.091Z,4.23
2019-05-25T23:04:13.904Z,3.70
2019-05-25T23:06:56.611Z,4.33
2019-05-25T23:09:13.340Z,5.43
2019-05-25T23:11:42.308Z,4.50
2019-05-25T23:14:11.171Z,3.00
2019-05-25T23:16:40.078Z,4.87
2019-05-25T23:19:08.893Z,5.27
2019-05-25T23:21:37.719Z,4.23
2019-05-25T23:24:06.618Z,3.87
2019-05-25T23:26:35.516Z,4.10
2019-05-25T23:29:04.402Z,4.90
2019-05-25T23:31:33.391Z,4.30
2019-05-25T23:34:02.358Z,4.83
2019-05-25T23:36:31.386Z,4.17
2019-05-25T23:39:00.185Z,3.80
2019-05-25T23:41:28.983Z,4.63
2019-05-25T23:43:59.910Z,4.00
2019-05-25T23:46:28.416Z,4.40
2019-05-25T23:48:57.243Z,4.03
2019-05-25T23:51:26.195Z,3.73
2019-05-25T23:53:55.056Z,4.30
2019-05-25T23:56:23.875Z,4.50
2019-05-25T23:58:52.860Z,4.90
